sensor_id;sensor_type;location;lat;lon;timestamp;P1;durP1;ratioP1;P2;durP2;ratioP2
70487;SDS011;57976;48.174;16.370;2022-12-07T00:01:53;10.20;;;5.00;;
70487;SDS011;57976;48.174;16.370;2022-12-07T00:03:58;9.80;;;4.10;;
70487;SDS011;57976;48.174;16.370;2022-12-07T00:06:05;9.70;;;4.30;;
70487;SDS011;57976;48.174;16.370;2022-12-07T00:08:11;9.90;;;4.50;;
70487;SDS011;57976;48.174;16.370;2022-12-07T00:10:15;10.00;;;4.50;;
70487;SDS011;57976;48.174;16.370;2022-12-07T00:12:20;9.40;;;4.10;;
70487;SDS011;57976;48.174;16.370;2022-12-07T00:14:25;9.20;;;4.30;;
70487;SDS011;57976;48.174;16.370;2022-12-07T00:16:30;8.60;;;4.20;;
70487;SDS011;57976;48.174;16.370;2022-12-07T00:18:36;9.90;;;4.40;;
70487;SDS011;57976;48.174;16.370;2022-12-07T00:20:41;9.70;;;4.50;;
70487;SDS011;57976;48.174;16.370;2022-12-07T00:22:45;10.10;;;4.80;;
70487;SDS011;57976;48.174;16.370;2022-12-07T00:24:50;9.90;;;4.50;;
70487;SDS011;57976;48.174;16.370;2022-12-07T00:26:55;10.30;;;4.80;;
70487;SDS011;57976;48.174;16.370;2022-12-07T00:29:00;10.30;;;4.70;;
70487;SDS011;57976;48.174;16.370;2022-12-07T00:31:08;10.90;;;4.80;;
70487;SDS011;57976;48.174;16.370;2022-12-07T00:33:15;10.70;;;4.80;;
70487;SDS011;57976;48.174;16.370;2022-12-07T00:35:20;10.40;;;4.70;;
70487;SDS011;57976;48.174;16.370;2022-12-07T00:37:25;10.30;;;4.70;;
70487;SDS011;57976;48.174;16.370;2022-12-07T00:39:29;10.60;;;5.30;;
70487;SDS011;57976;48.174;16.370;2022-12-07T00:41:34;10.30;;;5.30;;
70487;SDS011;57976;48.174;16.370;2022-12-07T00:43:39;10.30;;;5.10;;
70487;SDS011;57976;48.174;16.370;2022-12-07T00:45:44;10.80;;;5.30;;
70487;SDS011;57976;48.174;16.370;2022-12-07T00:47:49;11.00;;;5.60;;
70487;SDS011;57976;48.174;16.370;2022-12-07T00:49:54;10.80;;;5.40;;
70487;SDS011;57976;48.174;16.370;2022-12-07T00:51:58;12.20;;;5.70;;
70487;SDS011;57976;48.174;16.370;2022-12-07T00:54:03;12.20;;;5.60;;
70487;SDS011;57976;48.174;16.370;2022-12-07T00:56:08;11.80;;;5.70;;
70487;SDS011;57976;48.174;16.370;2022-12-07T00:58:15;12.20;;;6.00;;
70487;SDS011;57976;48.174;16.370;2022-12-07T01:00:20;11.90;;;6.10;;
70487;SDS011;57976;48.174;16.370;2022-12-07T01:02:24;12.90;;;6.50;;
70487;SDS011;57976;48.174;16.370;2022-12-07T01:04:29;11.40;;;5.70;;
70487;SDS011;57976;48.174;16.370;2022-12-07T01:06:36;11.70;;;5.40;;
70487;SDS011;57976;48.174;16.370;2022-12-07T01:08:41;13.70;;;6.80;;
70487;SDS011;57976;48.174;16.370;2022-12-07T01:10:45;12.50;;;6.00;;
70487;SDS011;57976;48.174;16.370;2022-12-07T01:12:50;13.10;;;6.30;;
70487;SDS011;57976;48.174;16.370;2022-12-07T01:14:55;11.50;;;5.90;;
70487;SDS011;57976;48.174;16.370;2022-12-07T01:17:00;12.10;;;5.50;;
70487;SDS011;57976;48.174;16.370;2022-12-07T01:19:04;12.10;;;5.90;;
70487;SDS011;57976;48.174;16.370;2022-12-07T01:21:11;13.60;;;6.30;;
70487;SDS011;57976;48.174;16.370;2022-12-07T01:23:17;12.50;;;5.80;;
70487;SDS011;57976;48.174;16.370;2022-12-07T01:25:21;12.70;;;6.40;;
70487;SDS011;57976;48.174;16.370;2022-12-07T01:27:26;12.50;;;6.20;;
70487;SDS011;57976;48.174;16.370;2022-12-07T01:29:31;12.30;;;5.90;;
70487;SDS011;57976;48.174;16.370;2022-12-07T01:31:36;11.10;;;5.90;;
70487;SDS011;57976;48.174;16.370;2022-12-07T01:33:41;11.20;;;5.50;;
70487;SDS011;57976;48.174;16.370;2022-12-07T01:35:47;13.70;;;6.30;;
70487;SDS011;57976;48.174;16.370;2022-12-07T01:37:52;17.10;;;6.60;;
70487;SDS011;57976;48.174;16.370;2022-12-07T01:39:57;12.70;;;6.30;;
70487;SDS011;57976;48.174;16.370;2022-12-07T01:42:02;15.60;;;7.50;;
70487;SDS011;57976;48.174;16.370;2022-12-07T01:44:17;13.10;;;6.40;;
70487;SDS011;57976;48.174;16.370;2022-12-07T01:46:24;13.60;;;6.80;;
70487;SDS011;57976;48.174;16.370;2022-12-07T01:48:30;13.70;;;6.70;;
70487;SDS011;57976;48.174;16.370;2022-12-07T01:50:40;12.50;;;6.30;;
70487;SDS011;57976;48.174;16.370;2022-12-07T01:52:47;13.30;;;6.00;;
70487;SDS011;57976;48.174;16.370;2022-12-07T01:54:56;13.90;;;6.60;;
70487;SDS011;57976;48.174;16.370;2022-12-07T01:57:03;14.10;;;6.50;;
70487;SDS011;57976;48.174;16.370;2022-12-07T01:59:09;14.80;;;8.00;;
70487;SDS011;57976;48.174;16.370;2022-12-07T02:01:14;14.50;;;7.40;;
70487;SDS011;57976;48.174;16.370;2022-12-07T02:03:19;13.10;;;6.60;;
70487;SDS011;57976;48.174;16.370;2022-12-07T02:05:28;14.60;;;6.80;;
70487;SDS011;57976;48.174;16.370;2022-12-07T02:07:34;14.30;;;7.10;;
70487;SDS011;57976;48.174;16.370;2022-12-07T02:09:40;14.20;;;7.00;;
70487;SDS011;57976;48.174;16.370;2022-12-07T02:11:45;14.30;;;6.90;;
70487;SDS011;57976;48.174;16.370;2022-12-07T02:13:51;14.10;;;7.10;;
70487;SDS011;57976;48.174;16.370;2022-12-07T02:16:02;13.30;;;6.80;;
70487;SDS011;57976;48.174;16.370;2022-12-07T02:18:17;14.30;;;6.70;;
70487;SDS011;57976;48.174;16.370;2022-12-07T02:20:32;14.10;;;6.40;;
70487;SDS011;57976;48.174;16.370;2022-12-07T02:22:59;14.00;;;6.90;;
70487;SDS011;57976;48.174;16.370;2022-12-07T02:25:18;14.50;;;6.80;;
70487;SDS011;57976;48.174;16.370;2022-12-07T02:27:38;14.20;;;7.20;;
70487;SDS011;57976;48.174;16.370;2022-12-07T02:29:49;12.70;;;6.00;;
70487;SDS011;57976;48.174;16.370;2022-12-07T02:32:02;13.30;;;6.00;;
70487;SDS011;57976;48.174;16.370;2022-12-07T02:34:12;13.30;;;6.40;;
70487;SDS011;57976;48.174;16.370;2022-12-07T02:36:25;14.10;;;6.70;;
70487;SDS011;57976;48.174;16.370;2022-12-07T02:38:35;12.90;;;6.30;;
70487;SDS011;57976;48.174;16.370;2022-12-07T02:40:44;13.70;;;6.40;;
70487;SDS011;57976;48.174;16.370;2022-12-07T02:42:53;12.60;;;5.90;;
70487;SDS011;57976;48.174;16.370;2022-12-07T02:45:03;14.00;;;6.50;;
70487;SDS011;57976;48.174;16.370;2022-12-07T02:47:11;13.10;;;6.20;;
70487;SDS011;57976;48.174;16.370;2022-12-07T02:49:18;12.90;;;6.20;;
70487;SDS011;57976;48.174;16.370;2022-12-07T02:51:25;13.50;;;6.50;;
70487;SDS011;57976;48.174;16.370;2022-12-07T02:53:33;13.40;;;6.30;;
70487;SDS011;57976;48.174;16.370;2022-12-07T02:55:39;14.70;;;7.00;;
70487;SDS011;57976;48.174;16.370;2022-12-07T02:57:57;13.90;;;6.90;;
70487;SDS011;57976;48.174;16.370;2022-12-07T03:00:21;12.70;;;5.80;;
70487;SDS011;57976;48.174;16.370;2022-12-07T03:02:28;13.20;;;6.00;;
70487;SDS011;57976;48.174;16.370;2022-12-07T03:04:42;13.80;;;6.20;;
70487;SDS011;57976;48.174;16.370;2022-12-07T03:06:56;13.90;;;6.50;;
70487;SDS011;57976;48.174;16.370;2022-12-07T03:09:07;12.80;;;6.20;;
70487;SDS011;57976;48.174;16.370;2022-12-07T03:11:19;14.10;;;6.20;;
70487;SDS011;57976;48.174;16.370;2022-12-07T03:13:30;12.40;;;5.90;;
70487;SDS011;57976;48.174;16.370;2022-12-07T03:15:41;12.80;;;5.70;;
70487;SDS011;57976;48.174;16.370;2022-12-07T03:17:50;13.30;;;5.90;;
70487;SDS011;57976;48.174;16.370;2022-12-07T03:19:58;13.10;;;6.10;;
70487;SDS011;57976;48.174;16.370;2022-12-07T03:22:08;13.10;;;5.90;;
70487;SDS011;57976;48.174;16.370;2022-12-07T03:24:15;12.30;;;5.80;;
70487;SDS011;57976;48.174;16.370;2022-12-07T03:26:24;13.50;;;5.90;;
70487;SDS011;57976;48.174;16.370;2022-12-07T03:28:36;11.80;;;5.20;;
70487;SDS011;57976;48.174;16.370;2022-12-07T03:30:45;13.20;;;6.20;;
70487;SDS011;57976;48.174;16.370;2022-12-07T03:32:53;13.80;;;6.70;;
70487;SDS011;57976;48.174;16.370;2022-12-07T03:35:03;12.10;;;5.80;;
70487;SDS011;57976;48.174;16.370;2022-12-07T03:37:14;11.70;;;5.40;;
70487;SDS011;57976;48.174;16.370;2022-12-07T03:39:24;12.50;;;5.70;;
70487;SDS011;57976;48.174;16.370;2022-12-07T03:41:33;12.00;;;5.50;;
70487;SDS011;57976;48.174;16.370;2022-12-07T03:43:47;12.30;;;5.40;;
70487;SDS011;57976;48.174;16.370;2022-12-07T03:45:54;12.70;;;6.40;;
70487;SDS011;57976;48.174;16.370;2022-12-07T03:48:08;12.50;;;5.90;;
70487;SDS011;57976;48.174;16.370;2022-12-07T03:50:25;10.80;;;5.00;;
70487;SDS011;57976;48.174;16.370;2022-12-07T03:52:36;12.90;;;5.90;;
70487;SDS011;57976;48.174;16.370;2022-12-07T03:54:46;13.10;;;5.80;;
70487;SDS011;57976;48.174;16.370;2022-12-07T03:56:54;13.30;;;6.10;;
70487;SDS011;57976;48.174;16.370;2022-12-07T03:59:01;12.10;;;5.40;;
70487;SDS011;57976;48.174;16.370;2022-12-07T04:01:06;11.30;;;5.30;;
70487;SDS011;57976;48.174;16.370;2022-12-07T04:03:11;11.90;;;5.10;;
70487;SDS011;57976;48.174;16.370;2022-12-07T04:05:16;11.50;;;4.90;;
70487;SDS011;57976;48.174;16.370;2022-12-07T04:07:21;13.90;;;5.40;;
70487;SDS011;57976;48.174;16.370;2022-12-07T04:09:25;11.20;;;5.10;;
70487;SDS011;57976;48.174;16.370;2022-12-07T04:11:30;10.60;;;4.90;;
70487;SDS011;57976;48.174;16.370;2022-12-07T04:13:35;11.70;;;5.30;;
70487;SDS011;57976;48.174;16.370;2022-12-07T04:15:40;11.10;;;5.20;;
70487;SDS011;57976;48.174;16.370;2022-12-07T04:17:45;11.30;;;4.90;;
70487;SDS011;57976;48.174;16.370;2022-12-07T04:19:50;10.10;;;4.40;;
70487;SDS011;57976;48.174;16.370;2022-12-07T04:21:54;12.00;;;5.00;;
70487;SDS011;57976;48.174;16.370;2022-12-07T04:24:00;10.90;;;5.20;;
70487;SDS011;57976;48.174;16.370;2022-12-07T04:26:05;9.80;;;4.50;;
70487;SDS011;57976;48.174;16.370;2022-12-07T04:28:10;9.40;;;4.30;;
70487;SDS011;57976;48.174;16.370;2022-12-07T04:30:15;10.60;;;4.40;;
70487;SDS011;57976;48.174;16.370;2022-12-07T04:32:21;10.90;;;4.60;;
70487;SDS011;57976;48.174;16.370;2022-12-07T04:34:27;9.60;;;4.60;;
70487;SDS011;57976;48.174;16.370;2022-12-07T04:36:32;10.90;;;4.60;;
70487;SDS011;57976;48.174;16.370;2022-12-07T04:38:37;10.80;;;5.20;;
70487;SDS011;57976;48.174;16.370;2022-12-07T04:40:41;11.50;;;5.00;;
70487;SDS011;57976;48.174;16.370;2022-12-07T04:42:46;11.70;;;5.40;;
70487;SDS011;57976;48.174;16.370;2022-12-07T04:44:51;11.20;;;4.80;;
70487;SDS011;57976;48.174;16.370;2022-12-07T04:46:57;10.00;;;4.60;;
70487;SDS011;57976;48.174;16.370;2022-12-07T04:49:02;11.90;;;4.80;;
70487;SDS011;57976;48.174;16.370;2022-12-07T04:51:07;10.50;;;4.50;;
70487;SDS011;57976;48.174;16.370;2022-12-07T04:53:11;10.20;;;4.30;;
70487;SDS011;57976;48.174;16.370;2022-12-07T04:55:16;9.90;;;4.50;;
70487;SDS011;57976;48.174;16.370;2022-12-07T04:57:21;9.80;;;4.40;;
70487;SDS011;57976;48.174;16.370;2022-12-07T04:59:26;10.30;;;4.40;;
70487;SDS011;57976;48.174;16.370;2022-12-07T05:01:31;10.40;;;4.60;;
70487;SDS011;57976;48.174;16.370;2022-12-07T05:03:36;10.90;;;4.70;;
70487;SDS011;57976;48.174;16.370;2022-12-07T05:05:41;10.10;;;4.50;;
70487;SDS011;57976;48.174;16.370;2022-12-07T05:07:46;10.20;;;4.50;;
70487;SDS011;57976;48.174;16.370;2022-12-07T05:09:51;10.50;;;4.30;;
70487;SDS011;57976;48.174;16.370;2022-12-07T05:11:56;10.60;;;4.70;;
70487;SDS011;57976;48.174;16.370;2022-12-07T05:14:01;9.70;;;4.30;;
70487;SDS011;57976;48.174;16.370;2022-12-07T05:16:08;9.50;;;4.00;;
70487;SDS011;57976;48.174;16.370;2022-12-07T05:18:12;10.30;;;4.60;;
70487;SDS011;57976;48.174;16.370;2022-12-07T05:20:17;10.70;;;4.20;;
70487;SDS011;57976;48.174;16.370;2022-12-07T05:22:22;11.10;;;4.40;;
70487;SDS011;57976;48.174;16.370;2022-12-07T05:24:27;9.10;;;3.80;;
70487;SDS011;57976;48.174;16.370;2022-12-07T05:26:32;11.80;;;5.40;;
70487;SDS011;57976;48.174;16.370;2022-12-07T05:28:37;10.80;;;5.00;;
70487;SDS011;57976;48.174;16.370;2022-12-07T05:30:42;11.70;;;4.30;;
70487;SDS011;57976;48.174;16.370;2022-12-07T05:32:46;10.00;;;4.30;;
70487;SDS011;57976;48.174;16.370;2022-12-07T05:34:51;15.80;;;6.30;;
70487;SDS011;57976;48.174;16.370;2022-12-07T05:36:56;9.60;;;4.00;;
70487;SDS011;57976;48.174;16.370;2022-12-07T05:39:00;11.90;;;5.20;;
70487;SDS011;57976;48.174;16.370;2022-12-07T05:41:06;12.50;;;4.40;;
70487;SDS011;57976;48.174;16.370;2022-12-07T05:43:11;10.00;;;4.00;;
70487;SDS011;57976;48.174;16.370;2022-12-07T05:45:16;10.50;;;4.30;;
70487;SDS011;57976;48.174;16.370;2022-12-07T05:47:21;9.60;;;4.20;;
70487;SDS011;57976;48.174;16.370;2022-12-07T05:49:26;8.50;;;3.90;;
70487;SDS011;57976;48.174;16.370;2022-12-07T05:51:31;9.20;;;3.90;;
70487;SDS011;57976;48.174;16.370;2022-12-07T05:53:35;10.10;;;4.10;;
70487;SDS011;57976;48.174;16.370;2022-12-07T05:55:40;10.10;;;3.90;;
70487;SDS011;57976;48.174;16.370;2022-12-07T05:57:45;10.60;;;3.70;;
70487;SDS011;57976;48.174;16.370;2022-12-07T05:59:49;8.70;;;3.50;;
70487;SDS011;57976;48.174;16.370;2022-12-07T06:01:55;9.10;;;3.60;;
70487;SDS011;57976;48.174;16.370;2022-12-07T06:04:02;8.80;;;3.50;;
70487;SDS011;57976;48.174;16.370;2022-12-07T06:06:06;8.60;;;3.50;;
70487;SDS011;57976;48.174;16.370;2022-12-07T06:08:11;9.70;;;4.10;;
70487;SDS011;57976;48.174;16.370;2022-12-07T06:10:16;10.00;;;4.10;;
70487;SDS011;57976;48.174;16.370;2022-12-07T06:12:21;9.70;;;3.60;;
70487;SDS011;57976;48.174;16.370;2022-12-07T06:14:26;7.80;;;3.30;;
70487;SDS011;57976;48.174;16.370;2022-12-07T06:16:30;8.90;;;3.10;;
70487;SDS011;57976;48.174;16.370;2022-12-07T06:18:35;9.70;;;4.10;;
70487;SDS011;57976;48.174;16.370;2022-12-07T06:20:40;10.10;;;4.10;;
70487;SDS011;57976;48.174;16.370;2022-12-07T06:22:45;8.30;;;3.30;;
70487;SDS011;57976;48.174;16.370;2022-12-07T06:24:50;8.50;;;3.50;;
70487;SDS011;57976;48.174;16.370;2022-12-07T06:26:55;9.00;;;3.30;;
70487;SDS011;57976;48.174;16.370;2022-12-07T06:28:59;8.10;;;3.10;;
70487;SDS011;57976;48.174;16.370;2022-12-07T06:31:04;9.80;;;3.50;;
70487;SDS011;57976;48.174;16.370;2022-12-07T06:33:16;9.40;;;3.50;;
70487;SDS011;57976;48.174;16.370;2022-12-07T06:35:20;8.70;;;3.40;;
70487;SDS011;57976;48.174;16.370;2022-12-07T06:37:25;9.50;;;3.20;;
70487;SDS011;57976;48.174;16.370;2022-12-07T06:39:30;8.30;;;3.50;;
70487;SDS011;57976;48.174;16.370;2022-12-07T06:41:35;8.90;;;3.80;;
70487;SDS011;57976;48.174;16.370;2022-12-07T06:43:40;9.70;;;3.90;;
70487;SDS011;57976;48.174;16.370;2022-12-07T06:45:45;9.10;;;3.80;;
70487;SDS011;57976;48.174;16.370;2022-12-07T06:47:50;9.50;;;4.20;;
70487;SDS011;57976;48.174;16.370;2022-12-07T06:49:55;8.70;;;3.70;;
70487;SDS011;57976;48.174;16.370;2022-12-07T06:52:00;8.90;;;3.60;;
70487;SDS011;57976;48.174;16.370;2022-12-07T06:54:05;10.20;;;3.70;;
70487;SDS011;57976;48.174;16.370;2022-12-07T06:56:10;9.20;;;3.80;;
70487;SDS011;57976;48.174;16.370;2022-12-07T06:58:14;10.60;;;4.60;;
70487;SDS011;57976;48.174;16.370;2022-12-07T07:00:20;9.20;;;3.30;;
70487;SDS011;57976;48.174;16.370;2022-12-07T07:02:25;9.00;;;3.60;;
70487;SDS011;57976;48.174;16.370;2022-12-07T07:04:30;13.30;;;5.00;;
70487;SDS011;57976;48.174;16.370;2022-12-07T07:06:35;9.60;;;4.10;;
70487;SDS011;57976;48.174;16.370;2022-12-07T07:08:39;9.40;;;4.00;;
70487;SDS011;57976;48.174;16.370;2022-12-07T07:10:44;8.60;;;3.10;;
70487;SDS011;57976;48.174;16.370;2022-12-07T07:12:52;8.10;;;3.20;;
70487;SDS011;57976;48.174;16.370;2022-12-07T07:14:59;9.90;;;3.90;;
70487;SDS011;57976;48.174;16.370;2022-12-07T07:17:04;8.00;;;3.30;;
70487;SDS011;57976;48.174;16.370;2022-12-07T07:19:09;8.10;;;3.10;;
70487;SDS011;57976;48.174;16.370;2022-12-07T07:21:14;7.50;;;2.90;;
70487;SDS011;57976;48.174;16.370;2022-12-07T07:23:18;7.40;;;3.00;;
70487;SDS011;57976;48.174;16.370;2022-12-07T07:25:24;7.40;;;3.10;;
70487;SDS011;57976;48.174;16.370;2022-12-07T07:27:28;8.30;;;3.50;;
70487;SDS011;57976;48.174;16.370;2022-12-07T07:29:33;8.30;;;3.40;;
70487;SDS011;57976;48.174;16.370;2022-12-07T07:31:38;8.20;;;3.30;;
70487;SDS011;57976;48.174;16.370;2022-12-07T07:33:42;7.90;;;3.30;;
70487;SDS011;57976;48.174;16.370;2022-12-07T07:35:47;8.00;;;3.20;;
70487;SDS011;57976;48.174;16.370;2022-12-07T07:37:52;8.70;;;3.40;;
70487;SDS011;57976;48.174;16.370;2022-12-07T07:39:57;9.50;;;3.20;;
70487;SDS011;57976;48.174;16.370;2022-12-07T07:42:02;8.30;;;3.40;;
70487;SDS011;57976;48.174;16.370;2022-12-07T07:44:08;9.00;;;3.50;;
70487;SDS011;57976;48.174;16.370;2022-12-07T07:46:13;8.10;;;3.50;;
70487;SDS011;57976;48.174;16.370;2022-12-07T07:48:18;8.50;;;3.40;;
70487;SDS011;57976;48.174;16.370;2022-12-07T07:50:23;8.70;;;3.30;;
70487;SDS011;57976;48.174;16.370;2022-12-07T07:52:28;7.50;;;3.10;;
70487;SDS011;57976;48.174;16.370;2022-12-07T07:54:33;9.20;;;3.70;;
70487;SDS011;57976;48.174;16.370;2022-12-07T07:56:38;8.10;;;3.40;;
70487;SDS011;57976;48.174;16.370;2022-12-07T07:58:43;7.90;;;3.40;;
70487;SDS011;57976;48.174;16.370;2022-12-07T08:00:48;7.20;;;2.70;;
70487;SDS011;57976;48.174;16.370;2022-12-07T08:02:53;7.20;;;3.10;;
70487;SDS011;57976;48.174;16.370;2022-12-07T08:04:58;8.40;;;3.00;;
70487;SDS011;57976;48.174;16.370;2022-12-07T08:07:02;8.00;;;3.10;;
70487;SDS011;57976;48.174;16.370;2022-12-07T08:09:07;7.40;;;3.20;;
70487;SDS011;57976;48.174;16.370;2022-12-07T08:11:12;8.20;;;3.10;;
70487;SDS011;57976;48.174;16.370;2022-12-07T08:13:17;8.20;;;3.30;;
70487;SDS011;57976;48.174;16.370;2022-12-07T08:15:22;7.80;;;2.70;;
70487;SDS011;57976;48.174;16.370;2022-12-07T08:17:27;8.20;;;3.30;;
70487;SDS011;57976;48.174;16.370;2022-12-07T08:19:31;7.80;;;3.20;;
70487;SDS011;57976;48.174;16.370;2022-12-07T08:21:37;7.30;;;3.00;;
70487;SDS011;57976;48.174;16.370;2022-12-07T08:23:43;7.80;;;3.20;;
70487;SDS011;57976;48.174;16.370;2022-12-07T08:25:47;7.60;;;3.10;;
70487;SDS011;57976;48.174;16.370;2022-12-07T08:27:52;7.60;;;3.40;;
70487;SDS011;57976;48.174;16.370;2022-12-07T08:29:57;7.40;;;3.00;;
70487;SDS011;57976;48.174;16.370;2022-12-07T08:32:03;6.70;;;2.90;;
70487;SDS011;57976;48.174;16.370;2022-12-07T08:34:11;7.30;;;3.10;;
70487;SDS011;57976;48.174;16.370;2022-12-07T08:36:17;7.40;;;3.10;;
70487;SDS011;57976;48.174;16.370;2022-12-07T08:38:21;7.70;;;3.00;;
70487;SDS011;57976;48.174;16.370;2022-12-07T08:40:33;8.30;;;3.30;;
70487;SDS011;57976;48.174;16.370;2022-12-07T08:42:38;8.50;;;3.30;;
70487;SDS011;57976;48.174;16.370;2022-12-07T08:44:43;7.40;;;3.00;;
70487;SDS011;57976;48.174;16.370;2022-12-07T08:46:48;6.50;;;2.90;;
70487;SDS011;57976;48.174;16.370;2022-12-07T08:48:57;7.30;;;3.30;;
70487;SDS011;57976;48.174;16.370;2022-12-07T08:51:05;6.90;;;2.90;;
70487;SDS011;57976;48.174;16.370;2022-12-07T08:53:10;7.30;;;3.40;;
70487;SDS011;57976;48.174;16.370;2022-12-07T08:55:15;6.90;;;3.10;;
70487;SDS011;57976;48.174;16.370;2022-12-07T08:57:19;6.70;;;2.90;;
70487;SDS011;57976;48.174;16.370;2022-12-07T08:59:24;7.70;;;3.20;;
70487;SDS011;57976;48.174;16.370;2022-12-07T09:01:30;9.50;;;3.50;;
70487;SDS011;57976;48.174;16.370;2022-12-07T09:03:36;9.10;;;3.60;;
70487;SDS011;57976;48.174;16.370;2022-12-07T09:05:40;8.50;;;3.70;;
70487;SDS011;57976;48.174;16.370;2022-12-07T09:07:46;7.30;;;3.50;;
70487;SDS011;57976;48.174;16.370;2022-12-07T09:09:54;7.70;;;3.50;;
70487;SDS011;57976;48.174;16.370;2022-12-07T09:11:59;6.80;;;3.10;;
70487;SDS011;57976;48.174;16.370;2022-12-07T09:14:03;8.00;;;3.10;;
70487;SDS011;57976;48.174;16.370;2022-12-07T09:16:08;8.30;;;3.50;;
70487;SDS011;57976;48.174;16.370;2022-12-07T09:18:13;7.90;;;3.30;;
70487;SDS011;57976;48.174;16.370;2022-12-07T09:20:17;8.00;;;3.20;;
70487;SDS011;57976;48.174;16.370;2022-12-07T09:22:29;6.40;;;2.90;;
70487;SDS011;57976;48.174;16.370;2022-12-07T09:24:35;6.20;;;2.60;;
70487;SDS011;57976;48.174;16.370;2022-12-07T09:26:39;8.20;;;3.50;;
70487;SDS011;57976;48.174;16.370;2022-12-07T09:28:44;7.60;;;3.30;;
70487;SDS011;57976;48.174;16.370;2022-12-07T09:30:49;9.10;;;3.60;;
70487;SDS011;57976;48.174;16.370;2022-12-07T09:33:13;7.20;;;3.20;;
70487;SDS011;57976;48.174;16.370;2022-12-07T09:35:18;9.00;;;3.90;;
70487;SDS011;57976;48.174;16.370;2022-12-07T09:37:23;9.60;;;3.90;;
70487;SDS011;57976;48.174;16.370;2022-12-07T09:39:28;8.80;;;3.90;;
70487;SDS011;57976;48.174;16.370;2022-12-07T09:41:33;8.20;;;3.90;;
70487;SDS011;57976;48.174;16.370;2022-12-07T09:43:42;7.90;;;3.40;;
70487;SDS011;57976;48.174;16.370;2022-12-07T09:45:47;8.20;;;3.60;;
70487;SDS011;57976;48.174;16.370;2022-12-07T09:47:54;8.80;;;3.80;;
70487;SDS011;57976;48.174;16.370;2022-12-07T09:50:02;8.10;;;3.80;;
70487;SDS011;57976;48.174;16.370;2022-12-07T09:52:18;9.20;;;3.90;;
70487;SDS011;57976;48.174;16.370;2022-12-07T09:54:28;8.10;;;3.50;;
70487;SDS011;57976;48.174;16.370;2022-12-07T09:56:33;8.20;;;3.90;;
70487;SDS011;57976;48.174;16.370;2022-12-07T09:58:38;8.40;;;3.50;;
70487;SDS011;57976;48.174;16.370;2022-12-07T10:00:43;8.20;;;3.80;;
70487;SDS011;57976;48.174;16.370;2022-12-07T10:02:50;8.40;;;4.10;;
70487;SDS011;57976;48.174;16.370;2022-12-07T10:04:58;9.20;;;4.20;;
70487;SDS011;57976;48.174;16.370;2022-12-07T10:07:06;8.80;;;3.60;;
70487;SDS011;57976;48.174;16.370;2022-12-07T10:09:12;8.70;;;4.20;;
70487;SDS011;57976;48.174;16.370;2022-12-07T10:11:18;8.30;;;3.60;;
70487;SDS011;57976;48.174;16.370;2022-12-07T10:13:33;7.70;;;3.40;;
70487;SDS011;57976;48.174;16.370;2022-12-07T10:15:43;8.20;;;3.40;;
70487;SDS011;57976;48.174;16.370;2022-12-07T10:17:51;8.10;;;4.20;;
70487;SDS011;57976;48.174;16.370;2022-12-07T10:20:01;7.70;;;3.50;;
70487;SDS011;57976;48.174;16.370;2022-12-07T10:22:23;8.70;;;3.80;;
70487;SDS011;57976;48.174;16.370;2022-12-07T10:24:33;8.50;;;3.50;;
70487;SDS011;57976;48.174;16.370;2022-12-07T10:26:40;9.90;;;3.90;;
70487;SDS011;57976;48.174;16.370;2022-12-07T10:28:53;7.40;;;3.30;;
70487;SDS011;57976;48.174;16.370;2022-12-07T10:30:59;7.40;;;3.30;;
70487;SDS011;57976;48.174;16.370;2022-12-07T10:33:09;7.80;;;3.50;;
70487;SDS011;57976;48.174;16.370;2022-12-07T10:35:31;7.90;;;3.40;;
70487;SDS011;57976;48.174;16.370;2022-12-07T10:37:45;9.00;;;3.40;;
70487;SDS011;57976;48.174;16.370;2022-12-07T10:39:51;7.90;;;3.40;;
70487;SDS011;57976;48.174;16.370;2022-12-07T10:41:57;7.80;;;3.30;;
70487;SDS011;57976;48.174;16.370;2022-12-07T10:44:03;7.70;;;3.30;;
70487;SDS011;57976;48.174;16.370;2022-12-07T10:49:06;9.10;;;3.80;;
70487;SDS011;57976;48.174;16.370;2022-12-07T10:51:27;7.90;;;3.10;;
70487;SDS011;57976;48.174;16.370;2022-12-07T10:53:44;8.60;;;3.70;;
70487;SDS011;57976;48.174;16.370;2022-12-07T10:55:59;8.60;;;3.80;;
70487;SDS011;57976;48.174;16.370;2022-12-07T10:58:20;9.30;;;3.90;;
70487;SDS011;57976;48.174;16.370;2022-12-07T11:00:39;8.60;;;4.10;;
70487;SDS011;57976;48.174;16.370;2022-12-07T11:02:57;8.80;;;3.60;;
70487;SDS011;57976;48.174;16.370;2022-12-07T11:05:22;8.60;;;4.00;;
70487;SDS011;57976;48.174;16.370;2022-12-07T11:07:34;8.40;;;3.70;;
70487;SDS011;57976;48.174;16.370;2022-12-07T11:09:51;8.80;;;4.00;;
70487;SDS011;57976;48.174;16.370;2022-12-07T11:12:13;8.10;;;3.50;;
70487;SDS011;57976;48.174;16.370;2022-12-07T11:14:26;7.90;;;3.60;;
70487;SDS011;57976;48.174;16.370;2022-12-07T11:19:07;8.40;;;3.80;;
70487;SDS011;57976;48.174;16.370;2022-12-07T11:21:33;9.10;;;3.80;;
70487;SDS011;57976;48.174;16.370;2022-12-07T11:23:47;8.80;;;3.90;;
70487;SDS011;57976;48.174;16.370;2022-12-07T11:26:00;11.80;;;4.10;;
70487;SDS011;57976;48.174;16.370;2022-12-07T11:28:18;8.50;;;3.90;;
70487;SDS011;57976;48.174;16.370;2022-12-07T11:30:32;9.10;;;3.80;;
70487;SDS011;57976;48.174;16.370;2022-12-07T11:32:50;9.00;;;4.10;;
70487;SDS011;57976;48.174;16.370;2022-12-07T11:35:02;9.30;;;4.20;;
70487;SDS011;57976;48.174;16.370;2022-12-07T11:37:13;8.10;;;3.60;;
70487;SDS011;57976;48.174;16.370;2022-12-07T11:39:25;9.30;;;4.40;;
70487;SDS011;57976;48.174;16.370;2022-12-07T11:41:34;8.90;;;4.00;;
70487;SDS011;57976;48.174;16.370;2022-12-07T11:43:46;7.50;;;3.60;;
70487;SDS011;57976;48.174;16.370;2022-12-07T11:45:57;9.20;;;3.50;;
70487;SDS011;57976;48.174;16.370;2022-12-07T11:48:10;7.30;;;3.10;;
70487;SDS011;57976;48.174;16.370;2022-12-07T11:50:23;7.50;;;3.30;;
70487;SDS011;57976;48.174;16.370;2022-12-07T11:52:37;8.70;;;2.90;;
70487;SDS011;57976;48.174;16.370;2022-12-07T11:54:48;7.30;;;3.10;;
70487;SDS011;57976;48.174;16.370;2022-12-07T11:56:56;8.50;;;3.60;;
70487;SDS011;57976;48.174;16.370;2022-12-07T11:59:07;7.60;;;3.10;;
70487;SDS011;57976;48.174;16.370;2022-12-07T12:01:18;8.40;;;3.50;;
70487;SDS011;57976;48.174;16.370;2022-12-07T12:03:35;8.30;;;3.70;;
70487;SDS011;57976;48.174;16.370;2022-12-07T12:05:43;10.40;;;4.20;;
70487;SDS011;57976;48.174;16.370;2022-12-07T12:07:49;7.90;;;3.40;;
70487;SDS011;57976;48.174;16.370;2022-12-07T12:10:24;8.00;;;3.50;;
70487;SDS011;57976;48.174;16.370;2022-12-07T12:15:35;8.10;;;3.80;;
70487;SDS011;57976;48.174;16.370;2022-12-07T12:20:20;7.90;;;3.40;;
70487;SDS011;57976;48.174;16.370;2022-12-07T12:22:32;8.20;;;3.90;;
70487;SDS011;57976;48.174;16.370;2022-12-07T12:24:41;10.80;;;4.80;;
70487;SDS011;57976;48.174;16.370;2022-12-07T12:26:50;9.30;;;4.00;;
70487;SDS011;57976;48.174;16.370;2022-12-07T12:29:00;8.40;;;3.50;;
70487;SDS011;57976;48.174;16.370;2022-12-07T12:31:09;8.60;;;3.60;;
70487;SDS011;57976;48.174;16.370;2022-12-07T12:33:18;8.70;;;3.90;;
70487;SDS011;57976;48.174;16.370;2022-12-07T12:35:30;9.00;;;3.60;;
70487;SDS011;57976;48.174;16.370;2022-12-07T12:37:40;7.80;;;3.60;;
70487;SDS011;57976;48.174;16.370;2022-12-07T12:42:51;7.10;;;3.10;;
70487;SDS011;57976;48.174;16.370;2022-12-07T12:47:51;8.20;;;3.30;;
70487;SDS011;57976;48.174;16.370;2022-12-07T12:50:15;8.50;;;3.50;;